createdAt,value
2023-03-12T00:00:22.181Z,5.82
2023-03-12T00:02:53.845Z,5.00
2023-03-12T00:05:22.890Z,3.65
2023-03-12T00:07:52.759Z,5.20
2023-03-12T00:10:22.635Z,3.63
2023-03-12T00:12:49.285Z,5.25
2023-03-12T00:15:15.932Z,4.78
2023-03-12T00:17:45.076Z,3.78
2023-03-12T00:20:15.523Z,3.55
2023-03-12T00:22:42.199Z,3.97
2023-03-12T00:25:13.827Z,4.00
2023-03-12T00:27:43.597Z,3.00
2023-03-12T00:30:11.844Z,3.45
2023-03-12T00:32:38.804Z,3.92
2023-03-12T00:35:09.426Z,4.32
2023-03-12T00:37:37.997Z,4.15
2023-03-12T00:40:09.687Z,3.47
2023-03-12T00:42:36.419Z,4.30
2023-03-12T00:45:03.201Z,4.03
2023-03-12T00:47:29.870Z,3.75
2023-03-12T00:50:01.432Z,4.20
2023-03-12T00:52:28.079Z,4.55
2023-03-12T00:54:59.063Z,4.43
2023-03-12T00:57:25.759Z,2.92
2023-03-12T00:59:54.823Z,3.97
2023-03-12T01:02:21.853Z,5.60
2023-03-12T01:04:50.896Z,3.97
2023-03-12T01:07:17.649Z,3.35
2023-03-12T01:09:44.638Z,4.10
2023-03-12T01:12:14.027Z,3.85
2023-03-12T01:17:07.156Z,3.90
2023-03-12T01:19:36.471Z,3.97
2023-03-12T01:22:03.407Z,2.95
2023-03-12T01:24:33.341Z,3.15
2023-03-12T01:27:02.413Z,3.97
2023-03-12T01:29:29.224Z,4.18
2023-03-12T01:31:55.885Z,4.88
2023-03-12T01:34:22.788Z,3.75
2023-03-12T01:36:49.484Z,4.57
2023-03-12T01:39:18.737Z,3.40
2023-03-12T01:41:45.319Z,5.32
2023-03-12T01:44:16.285Z,3.60
2023-03-12T01:46:47.342Z,5.05
2023-03-12T01:49:23.140Z,4.40
2023-03-12T01:51:49.850Z,3.47
2023-03-12T01:54:39.976Z,2.70
2023-03-12T01:57:13.225Z,4.03
2023-03-12T01:59:53.613Z,4.25
2023-03-12T02:02:27.146Z,3.17
2023-03-12T02:05:22.684Z,3.80
2023-03-12T02:07:49.282Z,3.67
2023-03-12T02:10:17.214Z,3.03
2023-03-12T02:12:43.988Z,5.10
2023-03-12T02:15:11.404Z,4.53
2023-03-12T02:17:39.691Z,4.13
2023-03-12T02:20:38.593Z,4.63
2023-03-12T02:23:35.082Z,4.47
2023-03-12T02:26:04.717Z,4.00
2023-03-12T02:28:42.956Z,4.70
2023-03-12T02:31:14.891Z,5.78
2023-03-12T02:33:42.268Z,4.32
2023-03-12T02:36:12.172Z,4.90
2023-03-12T02:38:50.382Z,5.50
2023-03-12T02:41:29.007Z,3.53
2023-03-12T02:44:09.335Z,4.38
2023-03-12T02:46:43.542Z,6.78
2023-03-12T02:49:13.416Z,3.20
2023-03-12T02:51:43.797Z,4.07
2023-03-12T02:54:14.892Z,4.55
2023-03-12T02:56:44.298Z,5.65
2023-03-12T03:01:49.201Z,7.65
2023-03-12T03:04:18.620Z,6.10
2023-03-12T03:09:14.639Z,5.88
2023-03-12T03:11:44.208Z,5.22
2023-03-12T03:14:11.208Z,5.75
2023-03-12T03:16:37.859Z,7.03
2023-03-12T03:19:05.231Z,5.40
2023-03-12T03:21:32.523Z,4.57
2023-03-12T03:23:59.346Z,5.28
2023-03-12T03:26:29.506Z,5.68
2023-03-12T03:28:58.363Z,5.57
2023-03-12T03:31:25.076Z,5.20
2023-03-12T03:33:54.506Z,5.40
2023-03-12T03:38:49.501Z,5.50
2023-03-12T03:41:20.716Z,5.45
2023-03-12T03:43:55.810Z,5.93
2023-03-12T03:46:22.542Z,5.07
2023-03-12T03:48:51.111Z,5.57
2023-03-12T03:51:17.814Z,4.97
2023-03-12T03:53:49.556Z,4.65
2023-03-12T03:56:16.560Z,5.40
2023-03-12T03:58:45.571Z,7.90
2023-03-12T04:01:18.365Z,4.55
2023-03-12T04:03:47.405Z,5.32
2023-03-12T04:06:16.230Z,4.65
2023-03-12T04:08:42.959Z,5.63
2023-03-12T04:11:15.599Z,6.07
2023-03-12T04:13:45.528Z,4.05
2023-03-12T04:16:13.344Z,5.32
2023-03-12T04:18:40.497Z,6.20
2023-03-12T04:21:10.339Z,6.40
2023-03-12T04:23:40.445Z,8.45
2023-03-12T04:26:09.924Z,5.82
2023-03-12T04:31:10.942Z,6.28
2023-03-12T04:33:39.507Z,5.72
2023-03-12T04:36:09.662Z,5.63
2023-03-12T04:38:38.590Z,5.50
2023-03-12T04:41:12.710Z,6.97
2023-03-12T04:43:42.090Z,7.50
2023-03-12T04:46:11.446Z,6.00
2023-03-12T04:48:38.250Z,6.70
2023-03-12T04:51:08.226Z,8.63
2023-03-12T04:53:37.442Z,6.78
2023-03-12T04:56:04.417Z,6.85
2023-03-12T04:58:31.069Z,7.30
2023-03-12T05:00:57.786Z,7.55
2023-03-12T05:03:24.562Z,9.23
2023-03-12T05:05:51.401Z,8.23
2023-03-12T05:08:22.963Z,6.18
2023-03-12T05:10:51.896Z,8.20
2023-03-12T05:13:25.877Z,8.85
2023-03-12T05:15:54.902Z,8.57
2023-03-12T05:18:21.785Z,7.18
2023-03-12T05:21:00.636Z,6.43
2023-03-12T05:23:28.319Z,8.02
2023-03-12T05:25:55.662Z,9.27
2023-03-12T05:28:27.805Z,9.75
2023-03-12T05:31:02.233Z,11.15
2023-03-12T05:33:33.790Z,8.25
2023-03-12T05:36:00.473Z,7.65
2023-03-12T05:38:32.045Z,9.60
2023-03-12T05:41:01.824Z,8.73
2023-03-12T05:43:28.990Z,11.27
2023-03-12T05:46:04.174Z,8.35
2023-03-12T05:48:33.612Z,8.75
2023-03-12T05:53:28.966Z,6.45
2023-03-12T05:55:55.685Z,7.60
2023-03-12T05:58:22.399Z,7.43
2023-03-12T06:00:51.291Z,7.18
2023-03-12T06:03:20.295Z,6.25
2023-03-12T06:05:48.100Z,7.13
2023-03-12T06:08:20.022Z,6.72
2023-03-12T06:10:52.189Z,5.70
2023-03-12T06:13:19.351Z,8.13
2023-03-12T06:15:46.013Z,6.30
2023-03-12T06:18:12.646Z,5.10
2023-03-12T06:20:39.323Z,6.22
2023-03-12T06:23:06.042Z,7.18
2023-03-12T06:25:37.966Z,7.68
2023-03-12T06:28:07.966Z,6.47
2023-03-12T06:30:37.120Z,4.25
2023-03-12T06:33:04.823Z,6.18
2023-03-12T06:35:34.938Z,7.15
2023-03-12T06:38:03.783Z,7.75
2023-03-12T06:40:33.117Z,6.85
2023-03-12T06:45:29.385Z,7.95
2023-03-12T06:47:56.044Z,7.72
2023-03-12T06:50:23.103Z,7.50
2023-03-12T06:52:54.468Z,6.80
2023-03-12T06:55:25.925Z,8.63
2023-03-12T06:57:52.663Z,6.70
2023-03-12T07:00:19.882Z,7.50
2023-03-12T07:02:46.492Z,9.48
2023-03-12T07:05:13.269Z,6.45
2023-03-12T07:07:42.137Z,5.28
2023-03-12T07:10:13.292Z,6.35
2023-03-12T07:12:44.815Z,7.15
2023-03-12T07:15:16.281Z,7.40
2023-03-12T07:17:45.243Z,5.18
2023-03-12T07:27:46.134Z,7.18
2023-03-12T07:30:52.136Z,11.45
2023-03-12T07:33:23.333Z,7.40
2023-03-12T07:35:52.613Z,8.15
2023-03-12T07:38:19.637Z,7.50
2023-03-12T07:40:53.458Z,7.13
2023-03-12T07:43:21.706Z,6.45
2023-03-12T07:45:51.012Z,7.72
2023-03-12T07:48:21.456Z,8.00
2023-03-12T07:50:48.738Z,10.25
2023-03-12T07:53:18.352Z,7.15
2023-03-12T07:55:50.314Z,5.57
2023-03-12T07:58:26.863Z,6.75
2023-03-12T08:00:56.005Z,6.30
2023-03-12T08:03:25.191Z,5.85
2023-03-12T08:05:59.887Z,7.10
2023-03-12T08:08:26.787Z,5.05
2023-03-12T08:10:56.899Z,6.82
2023-03-12T08:13:24.522Z,7.72
2023-03-12T08:15:53.013Z,7.20
2023-03-12T08:18:28.059Z,4.30
2023-03-12T08:20:57.215Z,5.28
2023-03-12T08:23:29.098Z,6.15
2023-03-12T08:25:58.013Z,5.63
2023-03-12T08:28:25.602Z,6.97
2023-03-12T08:30:58.645Z,4.82
2023-03-12T08:33:28.868Z,5.38
2023-03-12T08:35:58.509Z,5.00
2023-03-12T08:38:30.076Z,4.60
2023-03-12T08:41:00.872Z,5.38
2023-03-12T08:43:32.814Z,5.13
2023-03-12T08:46:02.137Z,4.30
2023-03-12T09:01:55.047Z,5.07
2023-03-12T09:04:24.435Z,4.30
2023-03-12T09:06:56.416Z,5.05
2023-03-12T09:09:23.158Z,6.22
2023-03-12T09:11:51.968Z,6.10
2023-03-12T09:15:02.068Z,5.32
2023-03-12T09:17:07.868Z,5.82
2023-03-12T09:22:03.353Z,5.82
2023-03-12T09:24:30.398Z,6.45
2023-03-12T09:26:57.074Z,5.78
2023-03-12T09:29:24.850Z,4.68
2023-03-12T09:31:51.873Z,5.07
2023-03-12T09:34:18.488Z,5.90
2023-03-12T09:36:45.179Z,5.70
2023-03-12T09:39:14.309Z,6.63
2023-03-12T09:41:47.756Z,5.13
2023-03-12T09:44:56.731Z,6.32
2023-03-12T09:47:34.896Z,6.05
2023-03-12T09:50:19.671Z,4.75
2023-03-12T09:52:54.500Z,5.05
2023-03-12T09:55:23.049Z,5.32
2023-03-12T09:57:51.522Z,6.85
2023-03-12T10:00:27.433Z,6.65
2023-03-12T10:03:02.981Z,5.20
2023-03-12T10:05:53.921Z,4.47
2023-03-12T10:08:35.058Z,4.88
2023-03-12T10:11:26.117Z,5.45
2023-03-12T10:14:33.218Z,5.40
2023-03-12T10:17:07.671Z,5.05
2023-03-12T10:19:58.539Z,4.38
2023-03-12T10:22:35.036Z,5.25
2023-03-12T10:25:13.964Z,3.85
2023-03-12T10:27:41.356Z,3.40
2023-03-12T10:30:38.193Z,4.72
2023-03-12T10:33:13.499Z,4.85
2023-03-12T10:38:25.626Z,4.05
2023-03-12T10:40:52.689Z,3.88
2023-03-12T10:43:19.409Z,5.90
2023-03-12T10:46:01.263Z,3.80
2023-03-12T10:48:28.058Z,4.13
2023-03-12T10:51:08.517Z,4.70
2023-03-12T10:53:45.033Z,4.20
2023-03-12T10:56:22.630Z,4.63
2023-03-12T10:58:54.560Z,4.03
2023-03-12T11:01:29.761Z,5.53
2023-03-12T11:04:16.997Z,7.47
2023-03-12T11:06:43.921Z,4.00
2023-03-12T11:09:20.127Z,5.93
2023-03-12T11:11:48.941Z,4.53
2023-03-12T11:14:24.684Z,5.72
2023-03-12T11:16:52.795Z,6.90
2023-03-12T11:19:34.657Z,4.80
2023-03-12T11:22:09.017Z,4.35
2023-03-12T11:24:36.023Z,5.55
2023-03-12T11:27:15.868Z,4.38
2023-03-12T11:29:49.063Z,3.33
2023-03-12T11:32:36.451Z,2.65
2023-03-12T11:35:09.762Z,2.42
2023-03-12T11:37:55.138Z,2.47
2023-03-12T11:41:17.297Z,2.47
2023-03-12T11:43:58.294Z,3.33
2023-03-12T11:46:57.627Z,3.85
2023-03-12T11:49:41.078Z,3.30
2023-03-12T11:52:46.933Z,2.95
2023-03-12T11:55:22.615Z,2.42
2023-03-12T11:58:07.331Z,3.03
2023-03-12T12:00:39.115Z,2.97
2023-03-12T12:03:49.379Z,3.22
2023-03-12T12:06:32.047Z,3.33
2023-03-12T12:09:17.033Z,3.30
2023-03-12T12:12:20.997Z,2.58
2023-03-12T12:15:12.544Z,2.75
2023-03-12T12:17:44.825Z,2.30
2023-03-12T12:20:20.147Z,2.67
2023-03-12T12:25:40.341Z,2.70
2023-03-12T12:28:26.213Z,3.85
2023-03-12T12:31:08.214Z,2.67
2023-03-12T12:33:50.627Z,2.83
2023-03-12T12:36:19.491Z,3.33
2023-03-12T12:38:51.104Z,2.92
2023-03-12T12:41:21.048Z,3.63
2023-03-12T12:43:59.464Z,2.35
2023-03-12T12:46:30.896Z,2.22
2023-03-12T12:49:01.784Z,2.55
2023-03-12T12:51:36.207Z,2.95
2023-03-12T12:54:20.994Z,2.80
2023-03-12T12:57:08.309Z,2.90
2023-03-12T12:59:42.770Z,2.97
2023-03-12T13:02:28.226Z,2.40
2023-03-12T13:05:01.369Z,1.90
2023-03-12T13:07:28.232Z,3.63
2023-03-12T13:09:57.594Z,2.13
2023-03-12T13:12:52.821Z,2.58
2023-03-12T13:15:30.761Z,2.60
2023-03-12T13:18:07.438Z,2.33
2023-03-12T13:20:42.170Z,1.90
2023-03-12T13:23:32.108Z,2.88
2023-03-12T13:26:38.501Z,2.40
2023-03-12T13:29:31.900Z,1.52
2023-03-12T13:31:58.727Z,2.70
2023-03-12T13:34:28.495Z,2.95
2023-03-12T13:37:03.371Z,2.58
2023-03-12T13:39:39.465Z,2.65
2023-03-12T13:42:27.394Z,3.50
2023-03-12T13:44:54.407Z,2.33
2023-03-12T13:47:40.223Z,2.55
2023-03-12T13:50:15.745Z,2.30
2023-03-12T13:53:01.276Z,2.05
2023-03-12T13:55:31.671Z,2.20
2023-03-12T13:58:21.674Z,1.83
2023-03-12T14:00:56.286Z,2.42
2023-03-12T14:03:28.447Z,2.45
2023-03-12T14:06:02.859Z,2.00
2023-03-12T14:09:08.451Z,2.28
2023-03-12T14:11:58.696Z,2.80
2023-03-12T14:14:45.922Z,3.03
2023-03-12T14:17:21.521Z,2.47
2023-03-12T14:19:56.472Z,2.88
2023-03-12T14:22:29.661Z,3.83
2023-03-12T14:25:04.480Z,3.22
2023-03-12T14:27:36.888Z,3.83
2023-03-12T14:30:15.860Z,3.85
2023-03-12T14:32:48.255Z,3.00
2023-03-12T14:35:26.068Z,3.50
2023-03-12T14:37:59.734Z,3.15
2023-03-12T14:40:46.416Z,3.50
2023-03-12T14:43:40.646Z,3.72
2023-03-12T14:46:16.920Z,2.90
2023-03-12T14:48:46.900Z,6.38
2023-03-12T14:51:24.708Z,5.15
2023-03-12T14:53:52.145Z,4.43
2023-03-12T14:56:30.883Z,2.50
2023-03-12T14:59:03.054Z,3.42
2023-03-12T15:01:31.996Z,3.63
2023-03-12T15:04:08.413Z,2.60
2023-03-12T15:06:49.978Z,2.75
2023-03-12T15:11:52.497Z,3.30
2023-03-12T15:14:19.580Z,2.42
2023-03-12T15:16:49.069Z,2.97
2023-03-12T15:19:23.887Z,3.08
2023-03-12T15:21:51.313Z,3.05
2023-03-12T15:24:18.681Z,2.92
2023-03-12T15:26:48.148Z,3.42
2023-03-12T15:29:14.760Z,3.70
2023-03-12T15:31:46.027Z,4.28
2023-03-12T15:34:38.777Z,3.30
2023-03-12T15:37:41.478Z,3.00
2023-03-12T15:40:21.090Z,3.00
2023-03-12T15:42:48.645Z,6.05
2023-03-12T15:45:23.351Z,10.13
2023-03-12T15:47:54.514Z,15.25
2023-03-12T15:50:29.941Z,8.52
2023-03-12T15:53:06.125Z,4.25
2023-03-12T15:55:36.144Z,4.15
2023-03-12T15:58:03.348Z,3.30
2023-03-12T16:00:45.174Z,3.05
2023-03-12T16:03:23.763Z,3.95
2023-03-12T16:05:50.802Z,4.60
2023-03-12T16:08:22.809Z,3.17
2023-03-12T16:10:50.579Z,3.25
2023-03-12T16:13:22.935Z,6.38
2023-03-12T16:15:49.701Z,10.55
2023-03-12T16:18:19.755Z,3.78
2023-03-12T16:20:53.092Z,3.55
2023-03-12T16:23:20.413Z,3.35
2023-03-12T16:25:53.309Z,4.38
2023-03-12T16:28:21.297Z,4.63
2023-03-12T16:30:50.394Z,4.03
2023-03-12T16:33:20.152Z,4.22
2023-03-12T16:35:46.945Z,6.32
2023-03-12T16:38:18.446Z,4.78
2023-03-12T16:40:52.093Z,3.67
2023-03-12T16:43:30.273Z,4.20
2023-03-12T16:45:58.036Z,4.05
2023-03-12T16:48:25.603Z,4.82
2023-03-12T16:50:55.817Z,5.28
2023-03-12T16:53:26.261Z,4.03
2023-03-12T16:55:59.790Z,4.22
2023-03-12T16:58:27.547Z,4.90
2023-03-12T17:00:55.798Z,6.90
2023-03-12T17:03:35.476Z,6.47
2023-03-12T17:06:03.264Z,7.32
2023-03-12T17:08:29.965Z,5.07
2023-03-12T17:10:57.435Z,5.13
2023-03-12T17:13:39.828Z,5.43
2023-03-12T17:16:12.096Z,4.80
2023-03-12T17:18:40.255Z,7.00
2023-03-12T17:21:07.240Z,10.88
2023-03-12T17:23:36.755Z,9.23
2023-03-12T17:26:06.044Z,5.32
2023-03-12T17:31:28.597Z,8.00
2023-03-12T17:34:03.327Z,6.07
2023-03-12T17:36:30.264Z,12.10
2023-03-12T17:38:56.941Z,5.82
2023-03-12T17:41:26.862Z,5.80
2023-03-12T17:44:03.856Z,6.13
2023-03-12T17:46:33.548Z,6.80
2023-03-12T17:49:00.307Z,5.32
2023-03-12T17:51:35.411Z,5.63
2023-03-12T17:54:04.259Z,6.13
2023-03-12T17:56:30.837Z,5.35
2023-03-12T17:59:02.222Z,5.28
2023-03-12T18:01:28.757Z,7.05
2023-03-12T18:03:55.885Z,6.43
2023-03-12T18:06:22.618Z,6.22
2023-03-12T18:08:50.073Z,7.22
2023-03-12T18:11:17.001Z,14.63
2023-03-12T18:13:43.649Z,7.05
2023-03-12T18:16:12.551Z,7.28
2023-03-12T18:18:42.100Z,10.80
2023-03-12T18:21:08.695Z,8.85
2023-03-12T18:23:35.278Z,10.65
2023-03-12T18:26:04.695Z,11.20
2023-03-12T18:28:33.554Z,11.50
2023-03-12T18:31:04.953Z,12.15
2023-03-12T18:33:34.999Z,12.50
2023-03-12T18:36:07.683Z,11.93
2023-03-12T18:38:35.414Z,10.93
2023-03-12T18:41:07.189Z,12.15
2023-03-12T18:43:34.317Z,10.85
2023-03-12T18:46:01.164Z,12.52
2023-03-12T18:48:27.901Z,13.07
2023-03-12T18:50:57.443Z,11.57
2023-03-12T18:53:24.234Z,13.52
2023-03-12T18:55:55.760Z,10.35
2023-03-12T18:58:26.660Z,13.00
2023-03-12T19:00:54.961Z,11.00
2023-03-12T19:03:22.577Z,11.15
2023-03-12T19:06:00.020Z,11.88
2023-03-12T19:08:29.661Z,10.82
2023-03-12T19:10:58.533Z,13.57
2023-03-12T19:13:25.557Z,11.13
2023-03-12T19:15:58.938Z,10.77
2023-03-12T19:18:29.009Z,9.55
2023-03-12T19:20:58.480Z,10.73
2023-03-12T19:23:27.811Z,11.00
2023-03-12T19:28:21.030Z,9.05
2023-03-12T19:30:49.916Z,9.88
2023-03-12T19:33:16.933Z,15.48
2023-03-12T19:35:43.617Z,14.73
2023-03-12T19:38:10.252Z,16.77
2023-03-12T19:40:41.670Z,16.38
2023-03-12T19:43:08.217Z,23.95
2023-03-12T19:45:36.298Z,22.75
2023-03-12T19:48:04.009Z,14.52
2023-03-12T19:50:30.596Z,11.05
2023-03-12T19:53:01.658Z,12.05
2023-03-12T19:55:28.401Z,12.90
2023-03-12T19:57:54.996Z,10.70
2023-03-12T20:00:21.894Z,12.52
2023-03-12T20:02:51.234Z,10.60
2023-03-12T20:05:20.376Z,9.30
2023-03-12T20:07:49.254Z,9.60
2023-03-12T20:10:15.995Z,11.93
2023-03-12T20:12:50.022Z,9.10
2023-03-12T20:15:16.696Z,10.05
2023-03-12T20:17:43.219Z,12.10
2023-03-12T20:20:10.700Z,10.80
2023-03-12T20:22:39.736Z,11.02
2023-03-12T20:25:07.206Z,10.20
2023-03-12T20:27:36.869Z,9.43
2023-03-12T20:30:03.786Z,11.38
2023-03-12T20:32:30.656Z,10.75
2023-03-12T20:35:00.325Z,14.00
2023-03-12T20:37:29.357Z,12.05
2023-03-12T20:39:58.438Z,12.38
2023-03-12T20:42:24.988Z,14.18
2023-03-12T20:44:53.749Z,14.55
2023-03-12T20:47:20.290Z,12.43
2023-03-12T20:49:51.540Z,17.05
2023-03-12T20:52:21.066Z,11.07
2023-03-12T20:54:47.640Z,11.70
2023-03-12T20:57:14.312Z,13.68
2023-03-12T20:59:43.217Z,13.95
2023-03-12T21:02:13.814Z,13.73
2023-03-12T21:04:44.297Z,12.15
2023-03-12T21:07:13.336Z,13.45
2023-03-12T21:09:42.258Z,11.75
2023-03-12T21:12:11.318Z,14.15
2023-03-12T21:14:40.917Z,14.52
2023-03-12T21:17:09.804Z,13.02
2023-03-12T21:19:38.613Z,11.13
2023-03-12T21:22:05.194Z,15.82
2023-03-12T21:24:33.451Z,14.38
2023-03-12T21:27:02.509Z,16.00
2023-03-12T21:29:31.609Z,12.52
2023-03-12T21:31:58.342Z,15.32
2023-03-12T21:34:29.378Z,11.68
2023-03-12T21:37:00.850Z,12.93
2023-03-12T21:39:32.683Z,17.75
2023-03-12T21:42:00.686Z,16.25
2023-03-12T21:44:27.372Z,17.13
2023-03-12T21:46:53.962Z,16.42
2023-03-12T21:49:22.888Z,15.45
2023-03-12T21:51:52.027Z,17.60
2023-03-12T21:54:21.983Z,18.08
2023-03-12T21:56:51.370Z,16.95
2023-03-12T21:59:18.430Z,15.57
2023-03-12T22:01:45.019Z,15.10
2023-03-12T22:04:14.030Z,13.05
2023-03-12T22:06:42.931Z,14.73
2023-03-12T22:09:11.782Z,10.70
2023-03-12T22:11:43.808Z,12.48
2023-03-12T22:14:10.728Z,13.05
2023-03-12T22:16:39.841Z,12.93
2023-03-12T22:19:07.576Z,15.90
2023-03-12T22:21:36.496Z,17.60
2023-03-12T22:24:07.833Z,16.33
2023-03-12T22:26:34.652Z,16.13
2023-03-12T22:29:07.015Z,12.23
2023-03-12T22:31:35.867Z,11.68
2023-03-12T22:34:04.791Z,10.98
2023-03-12T22:36:31.587Z,12.23
2023-03-12T22:39:03.104Z,10.88
2023-03-12T22:41:32.396Z,10.15
2023-03-12T22:46:33.385Z,9.70
2023-03-12T22:49:01.529Z,8.20
2023-03-12T22:51:32.496Z,7.47
2023-03-12T22:53:59.412Z,9.38
2023-03-12T22:56:26.364Z,10.85
2023-03-12T22:58:52.981Z,8.70
2023-03-12T23:01:21.866Z,10.43
2023-03-12T23:03:49.784Z,9.20
2023-03-12T23:06:22.877Z,10.60
2023-03-12T23:08:52.195Z,9.52
2023-03-12T23:11:20.997Z,8.93
2023-03-12T23:13:49.878Z,7.10
2023-03-12T23:16:25.450Z,8.45
2023-03-12T23:18:52.275Z,9.07
2023-03-12T23:21:22.948Z,10.25
2023-03-12T23:23:55.097Z,7.43
2023-03-12T23:26:27.368Z,8.65
2023-03-12T23:28:58.815Z,9.68
2023-03-12T23:31:28.919Z,6.10
2023-03-12T23:33:58.563Z,8.40
2023-03-12T23:36:27.910Z,7.63
2023-03-12T23:38:57.134Z,8.90
2023-03-12T23:41:31.871Z,7.68
2023-03-12T23:43:59.099Z,8.07
2023-03-12T23:46:28.404Z,8.55
2023-03-12T23:51:27.225Z,11.35
2023-03-12T23:54:02.034Z,9.02
2023-03-12T23:56:33.830Z,8.27
2023-03-12T23:59:00.412Z,9.82
